Jefferson, WI

12:15 PM CDT on August 31, 2016 (GMT -0500)
APRSWXNET | | Change Station

Elev 784 ft 42.93 °N, 88.83 °W | Updated 22 minutes ago

Clear
Clear
73 °F
Feels Like 76 °F
N
3
Wind Variable Wind from NNW
Gusts 9.0 mph

Today
High -- | Low -- °F
--% Chance of Precip.
Yesterday
High -- | Low -- °F
Precip. -- in
Pressure 30.13 in
Visibility 10.0 miles
Clouds Clear
Heat Index 76 °F
Dew Point 59 °F
Humidity 61%
Rainfall in
Snow Depth Not available.
6:19 AM 7:30 PM
Waning Crescent, 0% visible
METAR KRYV 311655Z AUTO 01010G14KT 10SM CLR 23/13 A3013 RMK AO2 T02250134
Pressure 30.13 in
Visibility 10.0 miles
Clouds Clear
Heat Index 76 °F
Dew Point 59 °F
Humidity 61%
Rainfall in
Snow Depth Not available.
6:19 AM 7:30 PM
Waning Crescent, 0% visible
METAR KRYV 311655Z AUTO 01010G14KT 10SM CLR 23/13 A3013 RMK AO2 T02250134

10-Day Weather Forecast

Almanac

Astronomy

Aug. 31, 2016 Rise Set
Actual Time
Civil Twilight
Nautical Twilight
Astronomical Twilight
Moon
Length of Visible Light
Length of Day
Tomorrow will be .
, % of the Moon is Illuminated

Today's Extremes

State Highs State Lows

Community

WunderPhotos

Upload Photos

1,936,135 photos uploaded!

WunderBlog® & News

Nearby

Air Quality

  Air Quality AQ Index Pollutant
Not available.

Snow Depth

Station Depth Elevation

Earthquake Activity

City Distance Mag. Time & Date
Minimum magnitude displayed is 2.5.

Coastal Water Temperatures

Place Temperature

Stations

Nearby Weather Stations

Station Location Temp. Windchill Dew Point Humidity Wind Precip. Elev Updated Type
                   

Watches & Warnings

There are currently no watches in effect.